sensor_id;sensor_type;location;lat;lon;timestamp;P1;durP1;ratioP1;P2;durP2;ratioP2
13999;SDS011;7075;53.574;10.054;2023-03-17T00:00:38;2.33;;;1.57;;
13999;SDS011;7075;53.574;10.054;2023-03-17T00:03:09;2.60;;;1.50;;
13999;SDS011;7075;53.574;10.054;2023-03-17T00:05:48;3.00;;;1.70;;
13999;SDS011;7075;53.574;10.054;2023-03-17T00:08:18;4.33;;;1.83;;
13999;SDS011;7075;53.574;10.054;2023-03-17T00:10:48;4.80;;;2.17;;
13999;SDS011;7075;53.574;10.054;2023-03-17T00:13:14;3.00;;;2.00;;
13999;SDS011;7075;53.574;10.054;2023-03-17T00:15:43;3.57;;;2.00;;
13999;SDS011;7075;53.574;10.054;2023-03-17T00:18:15;2.27;;;1.60;;
13999;SDS011;7075;53.574;10.054;2023-03-17T00:20:43;3.00;;;1.70;;
13999;SDS011;7075;53.574;10.054;2023-03-17T00:23:21;1.97;;;1.50;;
13999;SDS011;7075;53.574;10.054;2023-03-17T00:25:48;1.90;;;1.60;;
13999;SDS011;7075;53.574;10.054;2023-03-17T00:30:45;2.23;;;1.67;;
13999;SDS011;7075;53.574;10.054;2023-03-17T00:33:14;4.33;;;2.00;;
13999;SDS011;7075;53.574;10.054;2023-03-17T00:35:41;4.30;;;1.80;;
13999;SDS011;7075;53.574;10.054;2023-03-17T00:38:19;3.30;;;1.43;;
13999;SDS011;7075;53.574;10.054;2023-03-17T00:40:45;1.93;;;1.37;;
13999;SDS011;7075;53.574;10.054;2023-03-17T00:43:11;6.93;;;1.80;;
13999;SDS011;7075;53.574;10.054;2023-03-17T00:45:39;4.47;;;1.60;;
13999;SDS011;7075;53.574;10.054;2023-03-17T00:48:12;2.90;;;1.87;;
13999;SDS011;7075;53.574;10.054;2023-03-17T00:50:39;4.47;;;2.30;;
13999;SDS011;7075;53.574;10.054;2023-03-17T00:53:05;3.63;;;2.20;;
13999;SDS011;7075;53.574;10.054;2023-03-17T00:55:35;3.47;;;2.00;;
13999;SDS011;7075;53.574;10.054;2023-03-17T00:58:01;3.37;;;1.60;;
13999;SDS011;7075;53.574;10.054;2023-03-17T01:00:33;3.57;;;2.30;;
13999;SDS011;7075;53.574;10.054;2023-03-17T01:02:59;2.13;;;1.90;;
13999;SDS011;7075;53.574;10.054;2023-03-17T01:05:24;4.00;;;1.83;;
13999;SDS011;7075;53.574;10.054;2023-03-17T01:07:52;3.17;;;1.97;;
13999;SDS011;7075;53.574;10.054;2023-03-17T01:10:21;3.27;;;2.23;;
13999;SDS011;7075;53.574;10.054;2023-03-17T01:12:48;3.73;;;2.40;;
13999;SDS011;7075;53.574;10.054;2023-03-17T01:15:14;2.27;;;1.57;;
13999;SDS011;7075;53.574;10.054;2023-03-17T01:17:40;4.33;;;1.77;;
13999;SDS011;7075;53.574;10.054;2023-03-17T01:22:49;3.40;;;2.07;;
13999;SDS011;7075;53.574;10.054;2023-03-17T01:25:15;3.90;;;2.00;;
13999;SDS011;7075;53.574;10.054;2023-03-17T01:27:42;3.97;;;2.20;;
13999;SDS011;7075;53.574;10.054;2023-03-17T01:32:50;3.77;;;1.97;;
13999;SDS011;7075;53.574;10.054;2023-03-17T01:35:16;3.57;;;2.03;;
13999;SDS011;7075;53.574;10.054;2023-03-17T01:37:42;2.13;;;1.77;;
13999;SDS011;7075;53.574;10.054;2023-03-17T01:40:12;3.73;;;2.10;;
13999;SDS011;7075;53.574;10.054;2023-03-17T01:42:41;2.93;;;2.10;;
13999;SDS011;7075;53.574;10.054;2023-03-17T01:48:13;2.80;;;1.90;;
13999;SDS011;7075;53.574;10.054;2023-03-17T01:50:39;4.80;;;1.90;;
13999;SDS011;7075;53.574;10.054;2023-03-17T01:53:06;2.93;;;2.10;;
13999;SDS011;7075;53.574;10.054;2023-03-17T01:55:35;4.00;;;2.10;;
13999;SDS011;7075;53.574;10.054;2023-03-17T01:58:01;2.97;;;2.20;;
13999;SDS011;7075;53.574;10.054;2023-03-17T02:00:27;3.73;;;2.33;;
13999;SDS011;7075;53.574;10.054;2023-03-17T02:02:54;2.50;;;1.90;;
13999;SDS011;7075;53.574;10.054;2023-03-17T02:05:22;3.90;;;2.17;;
13999;SDS011;7075;53.574;10.054;2023-03-17T02:07:50;2.93;;;2.10;;
13999;SDS011;7075;53.574;10.054;2023-03-17T02:10:20;3.23;;;2.23;;
13999;SDS011;7075;53.574;10.054;2023-03-17T02:12:50;3.87;;;2.30;;
13999;SDS011;7075;53.574;10.054;2023-03-17T02:15:19;3.40;;;2.30;;
13999;SDS011;7075;53.574;10.054;2023-03-17T02:17:45;3.17;;;2.13;;
13999;SDS011;7075;53.574;10.054;2023-03-17T02:22:54;2.40;;;2.20;;
13999;SDS011;7075;53.574;10.054;2023-03-17T02:25:21;4.10;;;2.30;;
13999;SDS011;7075;53.574;10.054;2023-03-17T02:27:49;2.07;;;1.80;;
13999;SDS011;7075;53.574;10.054;2023-03-17T02:30:18;3.10;;;1.63;;
13999;SDS011;7075;53.574;10.054;2023-03-17T02:32:45;2.87;;;2.23;;
13999;SDS011;7075;53.574;10.054;2023-03-17T02:35:12;6.03;;;2.90;;
13999;SDS011;7075;53.574;10.054;2023-03-17T02:37:38;3.93;;;2.10;;
13999;SDS011;7075;53.574;10.054;2023-03-17T02:40:04;3.43;;;2.03;;
13999;SDS011;7075;53.574;10.054;2023-03-17T02:42:31;3.17;;;2.27;;
13999;SDS011;7075;53.574;10.054;2023-03-17T02:44:58;4.50;;;2.10;;
13999;SDS011;7075;53.574;10.054;2023-03-17T02:47:24;3.40;;;2.10;;
13999;SDS011;7075;53.574;10.054;2023-03-17T02:49:49;4.27;;;2.30;;
13999;SDS011;7075;53.574;10.054;2023-03-17T02:52:15;2.20;;;2.00;;
13999;SDS011;7075;53.574;10.054;2023-03-17T02:54:41;4.83;;;2.50;;
13999;SDS011;7075;53.574;10.054;2023-03-17T02:57:07;2.63;;;2.17;;
13999;SDS011;7075;53.574;10.054;2023-03-17T02:59:33;3.73;;;2.40;;
13999;SDS011;7075;53.574;10.054;2023-03-17T03:01:59;3.83;;;2.30;;
13999;SDS011;7075;53.574;10.054;2023-03-17T03:04:25;3.03;;;2.13;;
13999;SDS011;7075;53.574;10.054;2023-03-17T03:06:51;3.57;;;2.33;;
13999;SDS011;7075;53.574;10.054;2023-03-17T03:09:18;2.70;;;2.17;;
13999;SDS011;7075;53.574;10.054;2023-03-17T03:11:43;5.97;;;2.73;;
13999;SDS011;7075;53.574;10.054;2023-03-17T03:14:10;4.97;;;2.70;;
13999;SDS011;7075;53.574;10.054;2023-03-17T03:16:36;3.00;;;2.17;;
13999;SDS011;7075;53.574;10.054;2023-03-17T03:19:02;5.30;;;2.50;;
13999;SDS011;7075;53.574;10.054;2023-03-17T03:21:28;5.53;;;2.43;;
13999;SDS011;7075;53.574;10.054;2023-03-17T03:23:53;4.23;;;2.47;;
13999;SDS011;7075;53.574;10.054;2023-03-17T03:26:19;4.40;;;2.33;;
13999;SDS011;7075;53.574;10.054;2023-03-17T03:28:45;3.47;;;2.50;;
13999;SDS011;7075;53.574;10.054;2023-03-17T03:31:10;5.10;;;2.20;;
13999;SDS011;7075;53.574;10.054;2023-03-17T03:33:38;3.07;;;2.27;;
13999;SDS011;7075;53.574;10.054;2023-03-17T03:36:05;3.20;;;2.43;;
13999;SDS011;7075;53.574;10.054;2023-03-17T03:38:31;3.60;;;2.20;;
13999;SDS011;7075;53.574;10.054;2023-03-17T03:40:57;3.30;;;2.33;;
13999;SDS011;7075;53.574;10.054;2023-03-17T03:43:22;4.53;;;2.03;;
13999;SDS011;7075;53.574;10.054;2023-03-17T03:45:48;4.27;;;2.70;;
13999;SDS011;7075;53.574;10.054;2023-03-17T03:48:13;3.57;;;2.67;;
13999;SDS011;7075;53.574;10.054;2023-03-17T03:50:39;3.50;;;2.50;;
13999;SDS011;7075;53.574;10.054;2023-03-17T03:53:05;6.07;;;2.80;;
13999;SDS011;7075;53.574;10.054;2023-03-17T03:55:31;5.50;;;3.63;;
13999;SDS011;7075;53.574;10.054;2023-03-17T03:57:56;3.53;;;2.33;;
13999;SDS011;7075;53.574;10.054;2023-03-17T04:00:22;4.60;;;3.07;;
13999;SDS011;7075;53.574;10.054;2023-03-17T04:02:47;5.90;;;2.50;;
13999;SDS011;7075;53.574;10.054;2023-03-17T04:05:13;5.90;;;3.13;;
13999;SDS011;7075;53.574;10.054;2023-03-17T04:07:41;4.90;;;2.60;;
13999;SDS011;7075;53.574;10.054;2023-03-17T04:10:07;4.00;;;2.53;;
13999;SDS011;7075;53.574;10.054;2023-03-17T04:12:36;3.80;;;2.53;;
13999;SDS011;7075;53.574;10.054;2023-03-17T04:15:02;3.40;;;2.30;;
13999;SDS011;7075;53.574;10.054;2023-03-17T04:17:28;4.40;;;2.80;;
13999;SDS011;7075;53.574;10.054;2023-03-17T04:19:54;2.90;;;2.30;;
13999;SDS011;7075;53.574;10.054;2023-03-17T04:22:20;3.00;;;2.67;;
13999;SDS011;7075;53.574;10.054;2023-03-17T04:24:46;5.17;;;2.40;;
13999;SDS011;7075;53.574;10.054;2023-03-17T04:27:11;6.03;;;2.13;;
13999;SDS011;7075;53.574;10.054;2023-03-17T04:29:39;4.60;;;2.97;;
13999;SDS011;7075;53.574;10.054;2023-03-17T04:32:05;3.93;;;3.20;;
13999;SDS011;7075;53.574;10.054;2023-03-17T04:34:32;4.93;;;2.40;;
13999;SDS011;7075;53.574;10.054;2023-03-17T04:36:58;5.50;;;3.17;;
13999;SDS011;7075;53.574;10.054;2023-03-17T04:39:23;3.20;;;2.27;;
13999;SDS011;7075;53.574;10.054;2023-03-17T04:41:49;4.10;;;2.73;;
13999;SDS011;7075;53.574;10.054;2023-03-17T04:44:14;3.17;;;2.63;;
13999;SDS011;7075;53.574;10.054;2023-03-17T04:46:40;7.67;;;2.90;;
13999;SDS011;7075;53.574;10.054;2023-03-17T04:49:06;4.33;;;2.90;;
13999;SDS011;7075;53.574;10.054;2023-03-17T04:51:32;4.20;;;2.53;;
13999;SDS011;7075;53.574;10.054;2023-03-17T04:54:00;4.63;;;2.60;;
13999;SDS011;7075;53.574;10.054;2023-03-17T04:56:26;6.33;;;3.23;;
13999;SDS011;7075;53.574;10.054;2023-03-17T04:58:51;3.87;;;2.87;;
13999;SDS011;7075;53.574;10.054;2023-03-17T05:01:17;3.93;;;2.60;;
13999;SDS011;7075;53.574;10.054;2023-03-17T05:03:42;4.33;;;2.53;;
13999;SDS011;7075;53.574;10.054;2023-03-17T05:06:09;3.37;;;2.80;;
13999;SDS011;7075;53.574;10.054;2023-03-17T05:08:34;5.93;;;2.97;;
13999;SDS011;7075;53.574;10.054;2023-03-17T05:11:00;3.13;;;2.83;;
13999;SDS011;7075;53.574;10.054;2023-03-17T05:13:26;4.27;;;3.03;;
13999;SDS011;7075;53.574;10.054;2023-03-17T05:15:53;5.93;;;3.10;;
13999;SDS011;7075;53.574;10.054;2023-03-17T05:18:20;3.53;;;3.03;;
13999;SDS011;7075;53.574;10.054;2023-03-17T05:20:47;5.17;;;3.40;;
13999;SDS011;7075;53.574;10.054;2023-03-17T05:23:12;5.27;;;3.17;;
13999;SDS011;7075;53.574;10.054;2023-03-17T05:25:38;3.83;;;2.63;;
13999;SDS011;7075;53.574;10.054;2023-03-17T05:28:05;3.90;;;2.90;;
13999;SDS011;7075;53.574;10.054;2023-03-17T05:30:31;4.33;;;2.97;;
13999;SDS011;7075;53.574;10.054;2023-03-17T05:32:57;4.90;;;2.80;;
13999;SDS011;7075;53.574;10.054;2023-03-17T05:35:24;5.20;;;2.93;;
13999;SDS011;7075;53.574;10.054;2023-03-17T05:37:57;5.43;;;3.07;;
13999;SDS011;7075;53.574;10.054;2023-03-17T05:40:23;5.50;;;3.20;;
13999;SDS011;7075;53.574;10.054;2023-03-17T05:42:49;3.33;;;2.60;;
13999;SDS011;7075;53.574;10.054;2023-03-17T05:45:17;3.60;;;2.97;;
13999;SDS011;7075;53.574;10.054;2023-03-17T05:47:42;16.00;;;3.03;;
13999;SDS011;7075;53.574;10.054;2023-03-17T05:50:08;9.47;;;4.27;;
13999;SDS011;7075;53.574;10.054;2023-03-17T05:52:35;8.90;;;3.37;;
13999;SDS011;7075;53.574;10.054;2023-03-17T05:55:02;4.50;;;3.60;;
13999;SDS011;7075;53.574;10.054;2023-03-17T05:57:28;5.23;;;3.40;;
13999;SDS011;7075;53.574;10.054;2023-03-17T05:59:54;3.93;;;3.20;;
13999;SDS011;7075;53.574;10.054;2023-03-17T06:02:20;5.13;;;3.23;;
13999;SDS011;7075;53.574;10.054;2023-03-17T06:04:45;3.87;;;3.20;;
13999;SDS011;7075;53.574;10.054;2023-03-17T06:07:11;6.13;;;3.13;;
13999;SDS011;7075;53.574;10.054;2023-03-17T06:09:37;5.13;;;3.17;;
13999;SDS011;7075;53.574;10.054;2023-03-17T06:12:04;3.97;;;2.77;;
13999;SDS011;7075;53.574;10.054;2023-03-17T06:14:30;4.40;;;2.97;;
13999;SDS011;7075;53.574;10.054;2023-03-17T06:16:56;3.37;;;3.00;;
13999;SDS011;7075;53.574;10.054;2023-03-17T06:19:22;8.83;;;3.33;;
13999;SDS011;7075;53.574;10.054;2023-03-17T06:21:48;4.27;;;3.40;;
13999;SDS011;7075;53.574;10.054;2023-03-17T06:24:14;9.97;;;3.50;;
13999;SDS011;7075;53.574;10.054;2023-03-17T06:26:40;3.47;;;2.90;;
13999;SDS011;7075;53.574;10.054;2023-03-17T06:29:06;5.87;;;3.57;;
13999;SDS011;7075;53.574;10.054;2023-03-17T06:31:36;7.17;;;3.50;;
13999;SDS011;7075;53.574;10.054;2023-03-17T06:34:02;5.90;;;4.00;;
13999;SDS011;7075;53.574;10.054;2023-03-17T06:36:28;4.47;;;3.23;;
13999;SDS011;7075;53.574;10.054;2023-03-17T06:38:56;3.97;;;3.50;;
13999;SDS011;7075;53.574;10.054;2023-03-17T06:41:21;5.53;;;3.53;;
13999;SDS011;7075;53.574;10.054;2023-03-17T06:43:47;4.33;;;3.50;;
13999;SDS011;7075;53.574;10.054;2023-03-17T06:46:13;4.47;;;4.03;;
13999;SDS011;7075;53.574;10.054;2023-03-17T06:48:38;5.53;;;4.00;;
13999;SDS011;7075;53.574;10.054;2023-03-17T06:51:04;8.43;;;3.80;;
13999;SDS011;7075;53.574;10.054;2023-03-17T06:53:30;5.23;;;3.43;;
13999;SDS011;7075;53.574;10.054;2023-03-17T06:55:55;6.87;;;4.13;;
13999;SDS011;7075;53.574;10.054;2023-03-17T06:58:21;4.80;;;3.67;;
13999;SDS011;7075;53.574;10.054;2023-03-17T07:00:47;7.70;;;3.50;;
13999;SDS011;7075;53.574;10.054;2023-03-17T07:03:16;8.27;;;3.70;;
13999;SDS011;7075;53.574;10.054;2023-03-17T07:05:41;6.13;;;4.10;;
13999;SDS011;7075;53.574;10.054;2023-03-17T07:08:07;4.00;;;3.37;;
13999;SDS011;7075;53.574;10.054;2023-03-17T07:10:33;5.53;;;3.47;;
13999;SDS011;7075;53.574;10.054;2023-03-17T07:13:00;4.30;;;3.57;;
13999;SDS011;7075;53.574;10.054;2023-03-17T07:15:26;5.63;;;3.67;;
13999;SDS011;7075;53.574;10.054;2023-03-17T07:17:52;5.63;;;3.70;;
13999;SDS011;7075;53.574;10.054;2023-03-17T07:20:18;7.53;;;4.10;;
13999;SDS011;7075;53.574;10.054;2023-03-17T07:22:44;6.77;;;3.90;;
13999;SDS011;7075;53.574;10.054;2023-03-17T07:25:10;5.37;;;3.47;;
13999;SDS011;7075;53.574;10.054;2023-03-17T07:27:35;4.33;;;3.37;;
13999;SDS011;7075;53.574;10.054;2023-03-17T07:30:01;5.47;;;3.80;;
13999;SDS011;7075;53.574;10.054;2023-03-17T07:32:29;3.40;;;3.00;;
13999;SDS011;7075;53.574;10.054;2023-03-17T07:34:55;5.37;;;3.87;;
13999;SDS011;7075;53.574;10.054;2023-03-17T07:37:22;5.27;;;3.57;;
13999;SDS011;7075;53.574;10.054;2023-03-17T07:39:48;6.03;;;3.77;;
13999;SDS011;7075;53.574;10.054;2023-03-17T07:42:14;5.77;;;3.07;;
13999;SDS011;7075;53.574;10.054;2023-03-17T07:44:41;6.47;;;3.23;;
13999;SDS011;7075;53.574;10.054;2023-03-17T07:47:07;6.67;;;3.93;;
13999;SDS011;7075;53.574;10.054;2023-03-17T07:49:33;6.00;;;3.83;;
13999;SDS011;7075;53.574;10.054;2023-03-17T07:51:58;5.90;;;2.87;;
13999;SDS011;7075;53.574;10.054;2023-03-17T07:54:24;11.57;;;3.90;;
13999;SDS011;7075;53.574;10.054;2023-03-17T07:56:51;8.60;;;3.60;;
13999;SDS011;7075;53.574;10.054;2023-03-17T07:59:17;5.03;;;3.53;;
13999;SDS011;7075;53.574;10.054;2023-03-17T08:01:43;4.57;;;3.17;;
13999;SDS011;7075;53.574;10.054;2023-03-17T08:04:09;4.87;;;3.43;;
13999;SDS011;7075;53.574;10.054;2023-03-17T08:06:36;6.37;;;3.67;;
13999;SDS011;7075;53.574;10.054;2023-03-17T08:09:04;7.10;;;4.07;;
13999;SDS011;7075;53.574;10.054;2023-03-17T08:11:30;5.57;;;4.10;;
13999;SDS011;7075;53.574;10.054;2023-03-17T08:13:56;6.40;;;3.80;;
13999;SDS011;7075;53.574;10.054;2023-03-17T08:16:21;4.40;;;3.57;;
13999;SDS011;7075;53.574;10.054;2023-03-17T08:18:47;4.50;;;3.40;;
13999;SDS011;7075;53.574;10.054;2023-03-17T08:21:13;6.67;;;3.60;;
13999;SDS011;7075;53.574;10.054;2023-03-17T08:23:39;5.83;;;3.93;;
13999;SDS011;7075;53.574;10.054;2023-03-17T08:26:05;4.77;;;3.37;;
13999;SDS011;7075;53.574;10.054;2023-03-17T08:28:32;7.53;;;3.60;;
13999;SDS011;7075;53.574;10.054;2023-03-17T08:31:31;6.83;;;4.00;;
13999;SDS011;7075;53.574;10.054;2023-03-17T08:33:52;5.77;;;3.37;;
13999;SDS011;7075;53.574;10.054;2023-03-17T08:36:20;7.13;;;3.40;;
13999;SDS011;7075;53.574;10.054;2023-03-17T08:38:46;4.90;;;3.40;;
13999;SDS011;7075;53.574;10.054;2023-03-17T08:41:14;6.63;;;3.43;;
13999;SDS011;7075;53.574;10.054;2023-03-17T08:43:42;5.87;;;3.37;;
13999;SDS011;7075;53.574;10.054;2023-03-17T08:46:31;7.93;;;3.53;;
13999;SDS011;7075;53.574;10.054;2023-03-17T08:48:56;4.97;;;3.33;;
13999;SDS011;7075;53.574;10.054;2023-03-17T08:51:23;8.70;;;3.93;;
13999;SDS011;7075;53.574;10.054;2023-03-17T08:53:51;6.77;;;3.30;;
13999;SDS011;7075;53.574;10.054;2023-03-17T08:56:17;4.03;;;2.80;;
13999;SDS011;7075;53.574;10.054;2023-03-17T08:58:43;5.17;;;2.97;;
13999;SDS011;7075;53.574;10.054;2023-03-17T09:01:10;4.23;;;3.30;;
13999;SDS011;7075;53.574;10.054;2023-03-17T09:03:37;3.70;;;2.93;;
13999;SDS011;7075;53.574;10.054;2023-03-17T09:06:06;4.77;;;3.23;;
13999;SDS011;7075;53.574;10.054;2023-03-17T09:08:33;5.47;;;3.50;;
13999;SDS011;7075;53.574;10.054;2023-03-17T09:11:01;4.50;;;3.00;;
13999;SDS011;7075;53.574;10.054;2023-03-17T09:13:29;3.77;;;2.83;;
13999;SDS011;7075;53.574;10.054;2023-03-17T09:15:54;4.03;;;2.60;;
13999;SDS011;7075;53.574;10.054;2023-03-17T09:18:20;4.83;;;2.90;;
13999;SDS011;7075;53.574;10.054;2023-03-17T09:20:46;5.33;;;2.70;;
13999;SDS011;7075;53.574;10.054;2023-03-17T09:23:14;3.93;;;3.13;;
13999;SDS011;7075;53.574;10.054;2023-03-17T09:25:40;6.50;;;2.80;;
13999;SDS011;7075;53.574;10.054;2023-03-17T09:28:06;4.87;;;3.20;;
13999;SDS011;7075;53.574;10.054;2023-03-17T09:30:32;6.27;;;3.43;;
13999;SDS011;7075;53.574;10.054;2023-03-17T09:32:58;5.60;;;3.07;;
13999;SDS011;7075;53.574;10.054;2023-03-17T09:35:28;3.63;;;2.50;;
13999;SDS011;7075;53.574;10.054;2023-03-17T09:37:57;3.63;;;2.90;;
13999;SDS011;7075;53.574;10.054;2023-03-17T09:40:27;4.03;;;2.83;;
13999;SDS011;7075;53.574;10.054;2023-03-17T09:43:03;5.40;;;3.60;;
13999;SDS011;7075;53.574;10.054;2023-03-17T09:45:50;6.33;;;3.20;;
13999;SDS011;7075;53.574;10.054;2023-03-17T09:48:23;4.47;;;2.90;;
13999;SDS011;7075;53.574;10.054;2023-03-17T09:51:10;6.90;;;2.73;;
13999;SDS011;7075;53.574;10.054;2023-03-17T09:53:44;4.60;;;2.83;;
13999;SDS011;7075;53.574;10.054;2023-03-17T09:56:20;3.27;;;2.73;;
13999;SDS011;7075;53.574;10.054;2023-03-17T09:58:53;4.77;;;2.70;;
13999;SDS011;7075;53.574;10.054;2023-03-17T10:01:21;5.53;;;3.23;;
13999;SDS011;7075;53.574;10.054;2023-03-17T10:03:47;6.70;;;2.73;;
13999;SDS011;7075;53.574;10.054;2023-03-17T10:12:02;3.03;;;2.47;;
13999;SDS011;7075;53.574;10.054;2023-03-17T10:14:53;2.23;;;2.00;;
13999;SDS011;7075;53.574;10.054;2023-03-17T10:17:27;5.27;;;2.53;;
13999;SDS011;7075;53.574;10.054;2023-03-17T10:23:04;4.07;;;2.20;;
13999;SDS011;7075;53.574;10.054;2023-03-17T10:25:35;2.30;;;1.90;;
13999;SDS011;7075;53.574;10.054;2023-03-17T10:28:06;4.50;;;2.80;;
13999;SDS011;7075;53.574;10.054;2023-03-17T10:30:39;3.60;;;2.20;;
13999;SDS011;7075;53.574;10.054;2023-03-17T10:33:05;3.73;;;2.50;;
13999;SDS011;7075;53.574;10.054;2023-03-17T10:35:31;4.40;;;2.37;;
13999;SDS011;7075;53.574;10.054;2023-03-17T10:38:04;3.40;;;2.47;;
13999;SDS011;7075;53.574;10.054;2023-03-17T10:41:04;5.10;;;2.73;;
13999;SDS011;7075;53.574;10.054;2023-03-17T10:43:40;6.83;;;2.30;;
13999;SDS011;7075;53.574;10.054;2023-03-17T10:46:21;2.00;;;1.80;;
13999;SDS011;7075;53.574;10.054;2023-03-17T10:48:50;4.60;;;2.10;;
13999;SDS011;7075;53.574;10.054;2023-03-17T10:51:30;2.60;;;1.90;;
13999;SDS011;7075;53.574;10.054;2023-03-17T10:54:01;2.57;;;1.70;;
13999;SDS011;7075;53.574;10.054;2023-03-17T10:56:42;4.17;;;2.03;;
13999;SDS011;7075;53.574;10.054;2023-03-17T10:59:16;9.47;;;2.40;;
13999;SDS011;7075;53.574;10.054;2023-03-17T11:01:46;2.83;;;2.03;;
13999;SDS011;7075;53.574;10.054;2023-03-17T11:07:19;1.53;;;1.43;;
13999;SDS011;7075;53.574;10.054;2023-03-17T11:09:55;2.90;;;1.90;;
13999;SDS011;7075;53.574;10.054;2023-03-17T11:12:28;2.57;;;1.83;;
13999;SDS011;7075;53.574;10.054;2023-03-17T11:15:04;2.00;;;1.80;;
13999;SDS011;7075;53.574;10.054;2023-03-17T11:23:03;5.17;;;2.00;;
13999;SDS011;7075;53.574;10.054;2023-03-17T11:25:35;6.47;;;1.90;;
13999;SDS011;7075;53.574;10.054;2023-03-17T11:28:15;2.50;;;1.80;;
13999;SDS011;7075;53.574;10.054;2023-03-17T11:33:58;3.27;;;1.90;;
13999;SDS011;7075;53.574;10.054;2023-03-17T11:39:34;4.30;;;2.07;;
13999;SDS011;7075;53.574;10.054;2023-03-17T11:42:19;3.47;;;1.90;;
13999;SDS011;7075;53.574;10.054;2023-03-17T11:44:56;2.07;;;1.50;;
13999;SDS011;7075;53.574;10.054;2023-03-17T11:50:00;4.67;;;2.77;;
13999;SDS011;7075;53.574;10.054;2023-03-17T11:52:49;3.00;;;2.20;;
13999;SDS011;7075;53.574;10.054;2023-03-17T11:55:41;3.23;;;2.47;;
13999;SDS011;7075;53.574;10.054;2023-03-17T11:58:37;3.57;;;2.37;;
13999;SDS011;7075;53.574;10.054;2023-03-17T12:01:06;6.67;;;2.57;;
13999;SDS011;7075;53.574;10.054;2023-03-17T12:06:50;5.00;;;2.50;;
13999;SDS011;7075;53.574;10.054;2023-03-17T12:09:25;3.67;;;2.23;;
13999;SDS011;7075;53.574;10.054;2023-03-17T12:11:57;2.37;;;1.90;;
13999;SDS011;7075;53.574;10.054;2023-03-17T12:14:48;2.93;;;1.60;;
13999;SDS011;7075;53.574;10.054;2023-03-17T12:22:46;1.97;;;1.67;;
13999;SDS011;7075;53.574;10.054;2023-03-17T12:25:46;2.57;;;1.97;;
13999;SDS011;7075;53.574;10.054;2023-03-17T12:28:23;3.33;;;1.70;;
13999;SDS011;7075;53.574;10.054;2023-03-17T12:30:58;3.27;;;1.40;;
13999;SDS011;7075;53.574;10.054;2023-03-17T12:36:13;2.70;;;1.80;;
13999;SDS011;7075;53.574;10.054;2023-03-17T12:38:50;2.10;;;1.70;;
13999;SDS011;7075;53.574;10.054;2023-03-17T12:55:30;5.37;;;2.43;;
13999;SDS011;7075;53.574;10.054;2023-03-17T13:01:43;4.97;;;2.17;;
13999;SDS011;7075;53.574;10.054;2023-03-17T13:04:26;3.23;;;1.70;;
13999;SDS011;7075;53.574;10.054;2023-03-17T13:07:15;2.90;;;2.17;;
13999;SDS011;7075;53.574;10.054;2023-03-17T13:09:47;1.70;;;1.43;;
13999;SDS011;7075;53.574;10.054;2023-03-17T13:12:35;4.43;;;1.83;;
13999;SDS011;7075;53.574;10.054;2023-03-17T13:20:44;4.30;;;1.60;;
13999;SDS011;7075;53.574;10.054;2023-03-17T13:23:34;1.93;;;1.57;;
13999;SDS011;7075;53.574;10.054;2023-03-17T13:26:05;3.53;;;1.87;;
13999;SDS011;7075;53.574;10.054;2023-03-17T13:31:14;2.53;;;1.83;;
13999;SDS011;7075;53.574;10.054;2023-03-17T13:33:56;2.20;;;1.60;;
13999;SDS011;7075;53.574;10.054;2023-03-17T13:36:33;2.77;;;2.20;;
13999;SDS011;7075;53.574;10.054;2023-03-17T13:45:09;5.63;;;2.10;;
13999;SDS011;7075;53.574;10.054;2023-03-17T13:48:20;2.20;;;2.00;;
13999;SDS011;7075;53.574;10.054;2023-03-17T13:53:55;5.30;;;1.80;;
13999;SDS011;7075;53.574;10.054;2023-03-17T13:59:09;3.97;;;1.67;;
13999;SDS011;7075;53.574;10.054;2023-03-17T14:01:39;2.50;;;1.80;;
13999;SDS011;7075;53.574;10.054;2023-03-17T14:04:27;1.80;;;1.50;;
13999;SDS011;7075;53.574;10.054;2023-03-17T14:06:59;2.47;;;1.90;;
13999;SDS011;7075;53.574;10.054;2023-03-17T14:09:34;4.67;;;1.50;;
13999;SDS011;7075;53.574;10.054;2023-03-17T14:12:12;2.60;;;1.80;;
13999;SDS011;7075;53.574;10.054;2023-03-17T14:14:50;2.17;;;1.80;;
13999;SDS011;7075;53.574;10.054;2023-03-17T14:17:23;2.50;;;1.60;;
13999;SDS011;7075;53.574;10.054;2023-03-17T14:20:05;2.50;;;1.80;;
13999;SDS011;7075;53.574;10.054;2023-03-17T14:22:52;2.90;;;1.87;;
13999;SDS011;7075;53.574;10.054;2023-03-17T14:25:24;1.60;;;1.40;;
13999;SDS011;7075;53.574;10.054;2023-03-17T14:27:55;2.40;;;1.87;;
13999;SDS011;7075;53.574;10.054;2023-03-17T14:30:27;2.20;;;1.57;;
13999;SDS011;7075;53.574;10.054;2023-03-17T14:33:02;2.80;;;2.20;;
13999;SDS011;7075;53.574;10.054;2023-03-17T14:35:33;2.43;;;1.73;;
13999;SDS011;7075;53.574;10.054;2023-03-17T14:38:02;2.40;;;1.70;;
13999;SDS011;7075;53.574;10.054;2023-03-17T14:40:48;2.07;;;1.80;;
13999;SDS011;7075;53.574;10.054;2023-03-17T14:43:15;2.23;;;1.67;;
13999;SDS011;7075;53.574;10.054;2023-03-17T14:45:50;4.70;;;1.80;;
13999;SDS011;7075;53.574;10.054;2023-03-17T14:48:21;3.50;;;1.90;;
13999;SDS011;7075;53.574;10.054;2023-03-17T14:50:54;5.13;;;1.50;;
13999;SDS011;7075;53.574;10.054;2023-03-17T14:53:29;2.60;;;1.80;;
13999;SDS011;7075;53.574;10.054;2023-03-17T14:55:56;3.23;;;1.60;;
13999;SDS011;7075;53.574;10.054;2023-03-17T14:58:25;2.60;;;1.70;;
13999;SDS011;7075;53.574;10.054;2023-03-17T15:01:02;1.93;;;1.77;;
13999;SDS011;7075;53.574;10.054;2023-03-17T15:03:57;1.67;;;1.47;;
13999;SDS011;7075;53.574;10.054;2023-03-17T15:06:29;2.50;;;1.70;;
13999;SDS011;7075;53.574;10.054;2023-03-17T15:08:58;1.57;;;1.27;;
13999;SDS011;7075;53.574;10.054;2023-03-17T15:11:39;2.40;;;1.57;;
13999;SDS011;7075;53.574;10.054;2023-03-17T15:14:27;2.53;;;1.40;;
13999;SDS011;7075;53.574;10.054;2023-03-17T15:17:05;3.43;;;2.07;;
13999;SDS011;7075;53.574;10.054;2023-03-17T15:19:40;2.20;;;1.60;;
13999;SDS011;7075;53.574;10.054;2023-03-17T15:27:57;6.93;;;1.90;;
13999;SDS011;7075;53.574;10.054;2023-03-17T15:30:23;3.00;;;1.53;;
13999;SDS011;7075;53.574;10.054;2023-03-17T15:33:00;2.63;;;1.50;;
13999;SDS011;7075;53.574;10.054;2023-03-17T15:35:27;1.67;;;1.30;;
13999;SDS011;7075;53.574;10.054;2023-03-17T15:37:53;1.83;;;1.37;;
13999;SDS011;7075;53.574;10.054;2023-03-17T15:40:19;2.10;;;1.50;;
13999;SDS011;7075;53.574;10.054;2023-03-17T15:42:45;2.23;;;1.80;;
13999;SDS011;7075;53.574;10.054;2023-03-17T15:45:14;3.90;;;1.60;;
13999;SDS011;7075;53.574;10.054;2023-03-17T15:47:40;2.77;;;1.33;;
13999;SDS011;7075;53.574;10.054;2023-03-17T15:50:12;3.80;;;1.53;;
13999;SDS011;7075;53.574;10.054;2023-03-17T15:52:44;1.90;;;1.43;;
13999;SDS011;7075;53.574;10.054;2023-03-17T15:55:19;1.67;;;1.30;;
13999;SDS011;7075;53.574;10.054;2023-03-17T15:57:46;3.93;;;1.60;;
13999;SDS011;7075;53.574;10.054;2023-03-17T16:00:19;3.77;;;1.53;;
13999;SDS011;7075;53.574;10.054;2023-03-17T16:02:47;2.57;;;1.83;;
13999;SDS011;7075;53.574;10.054;2023-03-17T16:05:16;2.37;;;1.80;;
13999;SDS011;7075;53.574;10.054;2023-03-17T16:07:45;1.63;;;1.33;;
13999;SDS011;7075;53.574;10.054;2023-03-17T16:10:15;4.00;;;1.80;;
13999;SDS011;7075;53.574;10.054;2023-03-17T16:12:41;3.10;;;1.90;;
13999;SDS011;7075;53.574;10.054;2023-03-17T16:15:08;4.83;;;2.20;;
13999;SDS011;7075;53.574;10.054;2023-03-17T16:17:46;1.93;;;1.43;;
13999;SDS011;7075;53.574;10.054;2023-03-17T16:20:19;5.17;;;1.77;;
13999;SDS011;7075;53.574;10.054;2023-03-17T16:22:49;3.83;;;1.80;;
13999;SDS011;7075;53.574;10.054;2023-03-17T16:25:24;3.10;;;1.83;;
13999;SDS011;7075;53.574;10.054;2023-03-17T16:27:56;3.07;;;1.70;;
13999;SDS011;7075;53.574;10.054;2023-03-17T16:30:30;2.27;;;1.50;;
13999;SDS011;7075;53.574;10.054;2023-03-17T16:33:01;4.43;;;1.50;;
13999;SDS011;7075;53.574;10.054;2023-03-17T16:35:49;4.87;;;1.80;;
13999;SDS011;7075;53.574;10.054;2023-03-17T16:38:22;2.93;;;1.93;;